Latest Weather Observations for Julia Creek

IDQ60801

Issued at 10:05 am EST Wednesday 24 September 2014 (issued every 30 minutes, with the page automatically refreshed every 10 minutes)

About weather observations | Map of weather stations | Latest weather observations for QLD | Other Formats
Station Details ID: 029058 Name: JULIA CREEK AIRPORT Lat: -20.67 Lon: 141.72 Height: 122.5 m
Data from the previous 72 hours. | See also: Recent months at Julia Creek
Date/Time
EST
Temp
°C
App
Temp
°C
Dew
Point
Rel
Hum
%
Delta-T
°C
Wind Press
QNH
hPa
Press
MSL
hPa
Rain
since 9 am
mm
Dir
 
Spd
km/h
Gust
km/h
Spd
kts
Gust
kts
24/10:00am 30.1 26.4 13.8 37 9.8 N 26 35 14 19 1017.0 1016.4 0.0
24/09:30am 29.2 25.1 13.8 39 9.2 N 28 43 15 23 1017.0 1016.4 0.0
24/09:00am 28.2 24.3 14.4 42 8.3 N 28 39 15 21 1017.1 1016.5 0.0
24/08:30am 26.8 22.8 14.2 46 7.6 N 28 35 15 19 1017.1 1016.5 0.0
24/08:00am 25.2 23.3 13.1 47 7.1 NNE 15 20 8 11 1017.0 1016.4 0.0
24/07:30am 23.7 22.1 11.7 47 6.8 NNE 11 15 6 8 1016.5 1015.9 0.0
24/07:00am 20.5 18.8 8.2 45 6.4 NE 7 11 4 6 1016.1 1015.5 0.0
24/06:30am 19.7 17.0 5.7 40 6.9 ENE 9 13 5 7 1015.6 1015.0 0.0
24/06:00am 21.4 18.3 5.7 36 7.9 NNE 11 13 6 7 1015.3 1014.7 0.0
24/05:30am 21.0 18.2 2.3 29 8.8 NNE 6 9 3 5 1015.3 1014.7 0.0
24/05:00am 17.7 14.5 -3.1 24 8.5 NE 4 7 2 4 1015.0 1014.4 0.0
24/04:30am 19.1 16.3 -3.7 21 9.3 NW 2 7 1 4 1014.6 1014.0 0.0
24/04:00am 22.6 18.5 -0.2 22 10.3 ENE 11 20 6 11 1014.2 1013.6 0.0
24/03:49am 23.6 18.5 3.0 26 10.0 NE 19 24 10 13 1013.6 1013.1 0.0
24/03:30am 17.6 14.9 -5.6 20 9.0 CALM 0 7 0 4 1013.4 1012.9 0.0
24/03:00am 19.0 15.3 -4.4 20 9.4 WSW 6 7 3 4 1013.4 1012.9 0.0
24/02:30am 18.8 15.1 -4.6 20 9.4 W 6 6 3 3 1013.4 1012.9 0.0
24/02:00am 18.6 14.6 -5.4 19 9.4 W 7 9 4 5 1013.5 1013.0 0.0
24/01:30am 19.1 14.4 -5.0 19 9.6 WNW 11 15 6 8 1013.6 1013.1 0.0
24/01:00am 17.9 13.6 -4.7 21 8.9 W 9 11 5 6 1013.5 1013.0 0.0
24/12:30am 19.3 14.8 -2.9 22 9.2 W 11 13 6 7 1013.6 1013.1 0.0
24/12:00am 20.1 16.7 -1.7 23 9.4 NNW 6 9 3 5 1014.1 1013.5 0.0
 
Date/Time
EST
Temp
°C
App
Temp
°C
Dew
Point
Rel
Hum
%
Delta-T
°C
Wind Press
QNH
hPa
Press
MSL
hPa
Rain
since 9 am
mm
Dir
 
Spd
km/h
Gust
km/h
Spd
kts
Gust
kts
23/11:30pm 20.2 16.5 -2.8 21 9.7 WNW 7 9 4 5 1014.1 1013.5 0.0
23/11:00pm 21.0 17.0 -2.1 21 9.9 NW 9 13 5 7 1014.2 1013.6 0.0
23/10:30pm 22.8 19.2 0.6 23 10.2 NNW 9 13 5 7 1014.0 1013.4 0.0
23/10:00pm 22.7 19.5 0.5 23 10.2 NNW 7 9 4 5 1013.8 1013.3 0.0
23/09:30pm 25.4 22.1 2.2 22 11.2 NNW 9 11 5 6 1013.6 1013.1 0.0
23/09:00pm 24.3 21.0 -0.1 20 11.2 N 7 9 4 5 1013.5 1013.0 0.0
23/08:30pm 26.1 23.0 1.4 20 11.8 N 7 7 4 4 1013.2 1012.7 0.0
23/08:00pm 26.3 23.2 0.1 18 12.3 N 6 7 3 4 1013.1 1012.6 0.0
23/07:30pm 28.5 25.5 1.1 17 13.3 N 6 6 3 3 1012.9 1012.4 0.0
23/07:00pm 28.2 25.0 0.9 17 13.2 NW 7 9 4 5 1012.6 1012.1 0.0
23/06:30pm 30.3 27.1 0.8 15 14.4 N 7 11 4 6 1012.3 1011.8 0.0
23/06:00pm 32.5 28.1 2.5 15 15.3 NNW 15 19 8 10 1012.0 1011.5 0.0
23/05:30pm 33.2 28.3 2.1 14 15.8 N 17 24 9 13 1011.9 1011.4 0.0
23/05:00pm 33.5 28.7 2.4 14 15.9 NNW 17 28 9 15 1011.8 1011.3 0.0
23/04:30pm 34.4 30.3 2.0 13 16.5 N 13 24 7 13 1011.7 1011.2 0.0
23/04:00pm 33.9 29.5 2.7 14 16.1 N 15 26 8 14 1011.6 1011.1 0.0
23/03:30pm 34.2 29.8 2.9 14 16.2 NNW 15 32 8 17 1011.6 1011.1 0.0
23/03:00pm 33.3 29.0 3.2 15 15.6 N 15 30 8 16 1011.8 1011.3 0.0
23/02:30pm 34.0 28.7 2.8 14 16.1 NNW 20 33 11 18 1012.1 1011.6 0.0
23/02:00pm 33.6 28.0 3.4 15 15.7 N 22 37 12 20 1012.5 1012.0 0.0
23/01:30pm 33.4 28.2 2.3 14 15.9 N 19 33 10 18 1012.8 1012.3 0.0
23/01:00pm 33.9 29.3 3.7 15 15.8 N 17 37 9 20 1013.5 1013.0 0.0
23/12:30pm 33.5 28.4 3.3 15 15.7 NNW 19 24 10 13 1014.2 1013.6 0.0
23/12:00pm 32.1 27.5 6.3 20 13.9 N 20 26 11 14 1014.8 1014.2 0.0
23/11:30am 31.9 27.5 4.6 18 14.3 NE 17 26 9 14 1015.5 1014.9 0.0
23/11:00am 31.4 28.0 10.7 28 12.0 N 19 33 10 18 1016.0 1015.4 0.0
23/10:30am 30.3 27.5 12.7 34 10.5 NNE 19 33 10 18 1016.5 1015.9 0.0
23/10:00am 28.9 26.3 13.9 39 9.0 NNE 20 30 11 16 1016.7 1016.1 0.0
23/09:30am 27.0 23.6 13.7 44 7.9 NNE 24 32 13 17 1016.9 1016.3 0.0
23/09:00am 25.9 22.6 14.1 48 7.0 NNE 24 33 13 18 1016.8 1016.2 0.0
23/08:30am 24.6 22.1 14.1 52 6.2 NE 20 30 11 16 1016.7 1016.1 0.0
23/08:00am 22.9 21.2 13.7 56 5.4 E 15 19 8 10 1016.4 1015.8 0.0
23/07:30am 20.8 19.6 12.8 60 4.6 E 11 15 6 8 1016.0 1015.4 0.0
23/07:00am 17.7 16.4 11.3 66 3.5 ESE 9 11 5 6 1015.6 1015.0 0.0
23/06:30am 16.6 15.4 10.2 66 3.4 E 7 9 4 5 1015.1 1014.5 0.0
23/06:00am 17.9 15.1 11.2 65 3.7 ESE 17 20 9 11 1014.5 1013.9 0.0
23/05:30am 17.9 15.2 11.7 67 3.4 SE 17 20 9 11 1014.1 1013.5 0.0
23/05:00am 16.6 14.1 9.8 64 3.6 SE 13 15 7 8 1013.6 1013.1 0.0
23/04:30am 16.2 14.3 9.2 63 3.6 SE 9 11 5 6 1013.4 1012.9 0.0
23/04:00am 17.1 14.9 9.3 60 4.1 ESE 11 13 6 7 1013.2 1012.7 0.0
23/03:30am 17.8 15.1 10.2 61 4.1 ESE 15 17 8 9 1012.9 1012.4 0.0
23/03:00am 17.5 14.7 8.6 56 4.6 ESE 13 15 7 8 1013.0 1012.5 0.0
23/02:30am 17.2 14.3 8.1 55 4.7 ESE 13 15 7 8 1013.2 1012.7 0.0
23/02:00am 16.9 13.5 6.1 49 5.3 ESE 13 15 7 8 1013.2 1012.7 0.0
23/01:30am 18.0 14.7 6.5 47 5.7 ESE 13 15 7 8 1013.2 1012.7 0.0
23/01:00am 17.9 14.3 4.8 42 6.3 ESE 13 15 7 8 1013.5 1013.0 0.0
23/12:30am 19.4 15.4 5.1 39 7.0 ESE 15 19 8 10 1013.7 1013.2 0.0
23/12:00am 19.0 14.7 1.1 30 8.1 SE 13 17 7 9 1013.8 1013.3 0.0
 
Date/Time
EST
Temp
°C
App
Temp
°C
Dew
Point
Rel
Hum
%
Delta-T
°C
Wind Press
QNH
hPa
Press
MSL
hPa
Rain
since 9 am
mm
Dir
 
Spd
km/h
Gust
km/h
Spd
kts
Gust
kts
22/11:30pm 19.4 14.5 -0.6 26 8.7 SE 15 19 8 10 1014.0 1013.4 0.0
22/11:00pm 17.5 12.7 -2.7 25 8.3 S 13 15 7 8 1013.8 1013.3 0.0
22/10:30pm 18.8 13.9 -3.3 22 9.1 S 13 13 7 7 1014.0 1013.4 0.0
22/10:00pm 20.4 15.2 -2.6 21 9.7 S 15 17 8 9 1013.8 1013.3 0.0
22/09:30pm 20.1 14.3 -4.2 19 9.9 S 17 19 9 10 1013.7 1013.2 0.0
22/09:00pm 20.1 15.1 -4.2 19 9.9 SSW 13 15 7 8 1013.7 1013.2 0.0
22/08:30pm 20.4 15.4 -4.7 18 10.2 SSW 13 15 7 8 1013.6 1013.1 0.0
22/08:00pm 21.9 17.3 -4.2 17 10.9 SW 11 13 6 7 1013.3 1012.8 0.0
22/07:30pm 23.1 18.1 -4.1 16 11.5 WSW 13 13 7 7 1013.0 1012.5 0.0
22/07:00pm 25.7 20.9 -2.8 15 12.6 WSW 13 15 7 8 1012.8 1012.3 0.0
22/06:30pm 27.9 23.0 -3.0 13 13.8 W 13 17 7 9 1012.4 1011.9 0.0
22/06:00pm 30.0 24.1 -2.5 12 14.9 W 19 28 10 15 1012.0 1011.5 0.0
22/05:30pm 31.0 25.0 -2.9 11 15.6 W 19 32 10 17 1011.7 1011.2 0.0
22/05:00pm 31.5 25.0 -2.5 11 15.8 NW 22 35 12 19 1011.4 1010.9 0.0
22/04:30pm 32.0 24.6 -3.4 10 16.3 NW 26 39 14 21 1011.3 1010.8 0.0
22/04:00pm 32.9 26.0 -2.7 10 16.7 WNW 24 37 13 20 1011.4 1010.9 0.0
22/03:46pm 33.1 25.4 -2.6 10 16.8 NW 28 52 15 28 1011.2 1010.6 0.0
22/03:30pm 33.0 27.6 -1.4 11 16.5 WNW 17 39 9 21 1011.3 1010.8 0.0
22/03:00pm 32.1 26.0 -2.0 11 16.1 W 20 32 11 17 1011.7 1011.2 0.0
22/02:30pm 32.5 28.7 -0.5 12 16.0 NW 9 20 5 11 1012.1 1011.6 0.0
22/02:00pm 31.9 26.9 -1.0 12 15.7 W 15 24 8 13 1012.4 1011.9 0.0
22/01:30pm 30.5 26.8 0.0 14 14.7 NW 9 19 5 10 1013.0 1012.5 0.0
22/01:00pm 30.2 26.6 0.7 15 14.4 NNW 9 19 5 10 1013.7 1013.2 0.0
22/12:30pm 29.7 25.5 -0.6 14 14.4 N 11 22 6 12 1014.4 1013.8 0.0
22/12:00pm 29.4 26.1 -0.9 14 14.2 N 6 13 3 7 1015.0 1014.4 0.0
22/11:30am 29.1 26.8 4.6 21 12.7 NW 6 20 3 11 1015.7 1015.1 0.0
22/11:00am 27.1 25.6 9.0 32 10.0 ENE 7 13 4 7 1016.3 1015.7 0.0
22/10:30am 26.0 25.0 11.0 39 8.5 N 7 13 4 7 1016.6 1016.0 0.0
22/10:00am 24.9 24.3 11.8 44 7.5 ENE 6 13 3 7 1016.9 1016.3 0.0
22/09:30am 24.1 22.7 12.1 47 6.9 E 11 17 6 9 1016.9 1016.3 0.0
22/09:00am 22.2 20.6 11.6 51 5.9 ESE 11 19 6 10 1017.2 1016.6 0.0
22/08:30am 20.7 18.3 11.3 55 5.2 SE 15 19 8 10 1017.1 1016.5 0.0
22/08:00am 18.9 16.5 9.9 56 4.8 SSE 13 17 7 9 1016.7 1016.1 0.0
22/07:30am 16.5 13.3 6.9 53 4.8 S 13 17 7 9 1016.3 1015.7 0.0
22/07:00am 13.8 11.0 3.0 48 4.8 S 7 11 4 6 1016.1 1015.5 0.0
22/06:30am 12.0 8.7 0.1 44 4.9 S 7 13 4 7 1015.6 1015.0 0.0
22/06:00am 11.7 7.7 -2.5 37 5.5 S 9 11 5 6 1015.5 1014.9 0.0
22/05:30am 12.0 7.0 -4.2 32 6.1 S 13 17 7 9 1015.0 1014.4 0.0
22/05:00am 12.4 8.0 -5.6 28 6.6 S 9 13 5 7 1014.7 1014.1 0.0
22/04:30am 13.5 8.0 -5.1 27 7.0 S 15 19 8 10 1014.3 1013.7 0.0
22/04:00am 12.6 7.8 -5.9 27 6.7 S 11 13 6 7 1014.4 1013.8 0.0
22/03:30am 13.1 9.3 -5.9 26 6.9 S 6 11 3 6 1014.7 1014.1 0.0
22/03:00am 14.4 8.9 -5.3 25 7.4 S 15 17 8 9 1014.8 1014.2 0.0
22/02:30am 15.3 10.2 -5.1 24 7.8 S 13 17 7 9 1015.0 1014.4 0.0
22/02:00am 16.1 11.4 -5.0 23 8.1 S 11 15 6 8 1015.4 1014.8 0.0
22/01:30am 17.4 11.2 -4.5 22 8.7 SSW 19 22 10 12 1015.4 1014.8 0.0
22/01:00am 17.9 12.1 -4.7 21 8.9 S 17 20 9 11 1015.7 1015.1 0.0
22/12:30am 18.0 12.6 -4.6 21 9.0 S 15 17 8 9 1015.9 1015.3 0.0
22/12:00am 18.6 13.5 -4.8 20 9.3 S 13 17 7 9 1016.3 1015.7 0.0
 
Date/Time
EST
Temp
°C
App
Temp
°C
Dew
Point
Rel
Hum
%
Delta-T
°C
Wind Press
QNH
hPa
Press
MSL
hPa
Rain
since 9 am
mm
Dir
 
Spd
km/h
Gust
km/h
Spd
kts
Gust
kts
21/11:30pm 20.1 14.3 -4.9 18 10.1 S 17 22 9 12 1016.4 1015.8 0.0
21/11:00pm 20.8 14.4 -5.1 17 10.5 SSW 20 28 11 15 1016.5 1015.9 0.0
21/10:30pm 22.1 15.7 -4.9 16 11.1 S 20 26 11 14 1016.5 1015.9 0.0
21/10:00pm 22.9 15.3 -5.1 15 11.5 SSW 26 33 14 18 1016.3 1015.7 0.0
21/09:30pm 22.4 16.1 -3.8 17 11.0 SSW 20 26 11 14 1016.3 1015.7 0.0
21/09:00pm 22.9 16.8 -2.6 18 11.0 SSW 20 26 11 14 1015.8 1015.2 0.0
21/08:30pm 22.5 17.4 -2.2 19 10.7 SSW 15 19 8 10 1015.7 1015.1 0.0
21/08:00pm 22.9 18.1 -2.6 18 11.0 SSW 13 15 7 8 1015.4 1014.8 0.0
21/07:30pm 25.0 19.9 -1.7 17 12.0 SW 15 17 8 9 1015.1 1014.5 0.0
21/07:00pm 26.4 21.5 -0.6 17 12.5 SW 15 19 8 10 1014.6 1014.0 0.0
21/06:30pm 28.3 22.4 -0.8 15 13.6 SW 20 28 11 15 1014.2 1013.6 0.0
21/06:00pm 30.0 24.2 -1.4 13 14.7 SW 19 24 10 13 1013.7 1013.2 0.0
21/05:30pm 30.9 26.0 -0.7 13 15.1 SSW 15 24 8 13 1013.3 1012.8 0.0
21/05:00pm 31.3 25.3 -1.5 12 15.5 SSW 20 30 11 16 1013.2 1012.7 0.0
21/04:30pm 31.8 26.4 -1.1 12 15.7 S 17 26 9 14 1013.1 1012.6 0.0
21/04:00pm 32.6 26.8 -1.7 11 16.3 S 19 24 10 13 1013.1 1012.6 0.0
21/03:30pm 31.5 27.5 -2.5 11 15.8 ESE 9 20 5 11 1013.1 1012.6 0.0
21/03:00pm 32.3 26.3 -3.2 10 16.4 SW 19 32 10 17 1013.5 1013.0 0.0
21/02:30pm 31.8 25.9 -2.3 11 15.9 S 19 30 10 16 1014.0 1013.4 0.0
21/02:00pm 31.5 25.9 -2.5 11 15.8 ESE 17 26 9 14 1014.6 1014.0 0.0
21/01:30pm 32.4 26.6 -1.8 11 16.2 ESE 19 30 10 16 1015.1 1014.5 0.0
21/01:00pm 32.1 25.3 -2.0 11 16.0 SE 24 32 13 17 1015.9 1015.3 0.0
21/12:30pm 31.1 24.6 -2.8 11 15.6 SE 22 35 12 19 1016.6 1016.0 0.0
21/12:00pm 29.8 22.9 -2.6 12 14.8 SE 24 39 13 21 1017.0 1016.4 0.0
21/11:49am 30.2 22.2 -2.3 12 15.0 SE 30 48 16 26 1017.2 1016.6 0.0
21/11:30am 30.1 21.7 -2.4 12 15.0 SSE 32 43 17 23 1017.6 1017.0 0.0
21/11:00am 29.8 21.5 -1.5 13 14.6 SSE 32 43 17 23 1017.9 1017.3 0.0
21/10:30am 29.5 20.6 -1.8 13 14.5 SE 35 52 19 28 1018.3 1017.7 0.0

Other Formats:

Comma delimited format used in spreadsheet applications
http://www.bom.gov.au/fwo/IDQ60801/IDQ60801.94337.axf

JavaScript Object Notation format (JSON) in row-major order
http://www.bom.gov.au/fwo/IDQ60801/IDQ60801.94337.json